Time;durP1;ratioP1;P1;durP2;ratioP2;P2;SDS_P1;SDS_P2;PMS_P1;PMS_P2;Temp;Humidity;BMP_temperature;BMP_pressure;BME280_temperature;BME280_humidity;BME280_pressure;Samples;Min_cycle;Max_cycle;Signal;HPM_P1;HPM_P2
2021/10/13 10:53:44;;;;;;;6.65;5.80;;;10.10;99.90;;;;;;5060032;28;20453;-51
2021/10/13 10:56:10;;;;;;;7.15;6.20;;;10.50;99.90;;;;;;5042766;28;20021;-50
2021/10/13 10:58:36;;;;;;;10.88;5.97;;;10.50;99.90;;;;;;5041575;28;20024;-52
2021/10/13 11:01:06;;;;;;;6.97;5.22;;;10.50;99.90;;;;;;5042383;28;20021;-50
2021/10/13 11:03:37;;;;;;;5.20;4.53;;;10.50;99.90;;;;;;5041982;28;20112;-52
2021/10/13 11:06:08;;;;;;;7.20;4.32;;;10.50;99.90;;;;;;5042124;28;20032;-51
2021/10/13 11:08:34;;;;;;;9.27;5.35;;;10.50;99.90;;;;;;5038493;28;20510;-51
2021/10/13 11:11:16;;;;;;;6.72;4.45;;;10.40;99.90;;;;;;5022385;28;20026;-50
2021/10/13 11:13:52;;;;;;;8.05;3.90;;;10.50;99.90;;;;;;5021872;28;20034;-51
2021/10/13 11:16:18;;;;;;;5.57;4.03;;;10.50;99.90;;;;;;5041215;28;20037;-50
2021/10/13 11:18:43;;;;;;;7.55;4.55;;;10.50;99.90;;;;;;5042293;28;20056;-50
2021/10/13 11:21:10;;;;;;;5.93;3.90;;;10.50;99.90;;;;;;5042152;28;20482;-51
2021/10/13 11:23:36;;;;;;;8.02;4.13;;;10.50;99.90;;;;;;5041160;28;20017;-51
2021/10/13 11:26:02;;;;;;;9.30;4.05;;;10.60;99.90;;;;;;5042035;28;20063;-54
2021/10/13 11:28:40;;;;;;;5.00;3.63;;;10.60;99.90;;;;;;5040073;28;20033;-50
2021/10/13 11:31:07;;;;;;;7.68;3.58;;;10.70;99.90;;;;;;5041887;28;20105;-51
2021/10/13 11:33:34;;;;;;;4.53;3.58;;;10.90;99.90;;;;;;5042340;28;20029;-51
2021/10/13 11:36:07;;;;;;;5.35;3.80;;;11.00;99.90;;;;;;5041717;28;20068;-51
2021/10/13 11:38:37;;;;;;;8.43;3.40;;;11.10;99.90;;;;;;5041445;28;20314;-51
2021/10/13 11:41:11;;;;;;;3.85;2.67;;;11.20;99.90;;;;;;5041341;28;20578;-50
2021/10/13 11:43:37;;;;;;;3.97;2.88;;;11.30;99.90;;;;;;5041298;28;20104;-51
2021/10/13 11:46:04;;;;;;;5.97;2.42;;;11.30;99.90;;;;;;5040364;28;20025;-50
2021/10/13 11:48:32;;;;;;;4.03;2.67;;;11.40;99.90;;;;;;5040873;28;20025;-51
2021/10/13 11:51:00;;;;;;;6.53;2.20;;;11.50;99.90;;;;;;5039406;28;20021;-51
2021/10/13 11:53:27;;;;;;;5.38;2.55;;;11.40;99.90;;;;;;5029255;28;20033;-51
2021/10/13 11:55:52;;;;;;;4.97;2.83;;;11.40;99.90;;;;;;5026101;28;20022;-50
2021/10/13 11:58:27;;;;;;;6.20;2.35;;;11.40;99.90;;;;;;5027184;28;20450;-51
2021/10/13 12:00:53;;;;;;;4.45;1.90;;;11.30;99.90;;;;;;5027366;28;20460;-51
2021/10/13 12:03:27;;;;;;;4.50;2.70;;;11.20;99.90;;;;;;5027880;28;20082;-50
2021/10/13 12:05:54;;;;;;;5.05;2.03;;;11.20;99.90;;;;;;5027504;28;20029;-52
2021/10/13 12:08:33;;;;;;;5.82;2.20;;;11.20;99.90;;;;;;5022788;28;20549;-51
2021/10/13 12:11:19;;;;;;;6.30;1.90;;;11.10;99.90;;;;;;5027294;28;20033;-51
2021/10/13 12:13:48;;;;;;;2.67;1.63;;;11.10;99.90;;;;;;5027483;28;20074;-50
2021/10/13 12:16:20;;;;;;;3.10;1.73;;;11.20;99.90;;;;;;5026925;28;20100;-52
2021/10/13 12:18:46;;;;;;;4.20;1.77;;;11.20;99.90;;;;;;5026822;28;20068;-52
2021/10/13 12:21:15;;;;;;;6.78;2.25;;;11.30;99.90;;;;;;5025970;28;20040;-50
2021/10/13 12:23:50;;;;;;;4.28;1.60;;;11.30;99.90;;;;;;5027451;28;20036;-53
2021/10/13 12:26:23;;;;;;;5.68;1.83;;;11.30;99.90;;;;;;5026962;28;20443;-50
2021/10/13 12:28:51;;;;;;;3.22;1.73;;;11.40;99.90;;;;;;5027424;28;20052;-52
2021/10/13 12:31:25;;;;;;;5.75;1.20;;;11.40;99.90;;;;;;5026926;28;20388;-51
2021/10/13 12:34:00;;;;;;;5.40;1.60;;;11.40;99.90;;;;;;5026263;28;20022;-54
2021/10/13 12:36:32;;;;;;;5.28;1.50;;;11.30;99.90;;;;;;5027430;28;20025;-53
2021/10/13 12:39:01;;;;;;;2.05;1.13;;;11.30;99.90;;;;;;5026502;28;20385;-52
2021/10/13 12:41:47;;;;;;;3.03;1.00;;;11.30;99.90;;;;;;5027386;28;20055;-51
2021/10/13 12:44:18;;;;;;;6.43;1.35;;;11.30;99.90;;;;;;5026977;28;20025;-51
2021/10/13 12:46:52;;;;;;;3.83;0.80;;;11.30;99.90;;;;;;5026870;28;20032;-51
2021/10/13 12:49:18;;;;;;;3.47;1.33;;;11.20;99.90;;;;;;5026672;28;20097;-53
2021/10/13 12:52:08;;;;;;;2.10;0.70;;;11.20;99.90;;;;;;5026895;28;20082;-51
2021/10/13 12:54:42;;;;;;;4.60;1.17;;;11.20;99.90;;;;;;5027375;28;20029;-54
2021/10/13 12:57:10;;;;;;;3.42;0.98;;;11.20;99.90;;;;;;5022260;28;20495;-51
2021/10/13 12:59:36;;;;;;;2.88;0.80;;;11.30;99.90;;;;;;5027268;28;20079;-50
2021/10/13 13:02:02;;;;;;;3.72;0.95;;;11.30;99.90;;;;;;5016626;28;20029;-51
2021/10/13 13:04:28;;;;;;;4.78;1.15;;;11.30;99.90;;;;;;5022669;28;20026;-52
2021/10/13 13:06:54;;;;;;;2.78;0.90;;;11.30;99.90;;;;;;5026210;28;20044;-55
2021/10/13 13:09:19;;;;;;;2.63;1.05;;;11.30;99.90;;;;;;5026301;28;20326;-51
2021/10/13 13:11:45;;;;;;;4.00;1.45;;;11.30;99.90;;;;;;5023326;28;20169;-52
2021/10/13 13:14:11;;;;;;;2.42;1.10;;;11.30;99.90;;;;;;5020328;28;20044;-52
2021/10/13 13:16:36;;;;;;;5.90;0.80;;;11.40;99.90;;;;;;5026136;28;20062;-51
2021/10/13 13:19:03;;;;;;;2.50;0.95;;;11.40;99.90;;;;;;5026343;28;20116;-55
2021/10/13 13:21:28;;;;;;;5.50;1.80;;;11.40;99.90;;;;;;5025750;28;20375;-53
2021/10/13 13:23:54;;;;;;;3.88;1.00;;;11.40;99.90;;;;;;5025692;28;20026;-53
2021/10/13 13:26:21;;;;;;;2.85;0.98;;;11.40;99.90;;;;;;5026262;28;20082;-51
2021/10/13 13:28:47;;;;;;;1.50;1.30;;;11.40;99.90;;;;;;5023557;28;20029;-56
2021/10/13 13:31:13;;;;;;;2.47;1.05;;;11.30;99.90;;;;;;5025453;28;20025;-55
2021/10/13 13:33:40;;;;;;;4.82;1.40;;;11.30;99.90;;;;;;5024919;28;20018;-52
2021/10/13 13:36:05;;;;;;;1.98;1.02;;;11.30;99.90;;;;;;5026393;28;20021;-54
2021/10/13 13:38:31;;;;;;;3.50;0.90;;;11.40;99.90;;;;;;5025568;28;20055;-51
2021/10/13 13:40:57;;;;;;;1.80;0.95;;;11.40;99.90;;;;;;5020524;28;20037;-52
2021/10/13 13:43:22;;;;;;;5.43;1.33;;;11.40;99.90;;;;;;5018044;28;20478;-54
2021/10/13 13:45:49;;;;;;;2.30;1.50;;;11.40;99.90;;;;;;5006740;28;20645;-51
2021/10/13 13:48:15;;;;;;;2.10;1.00;;;11.40;99.90;;;;;;5008000;28;20029;-52
2021/10/13 13:50:41;;;;;;;5.97;1.65;;;11.40;99.90;;;;;;5006003;28;20591;-51
2021/10/13 13:53:07;;;;;;;3.97;1.80;;;11.30;99.90;;;;;;5023729;28;20037;-54
2021/10/13 13:55:35;;;;;;;4.05;1.30;;;11.30;99.90;;;;;;5022930;28;20025;-52
2021/10/13 13:58:02;;;;;;;6.80;1.67;;;11.20;99.90;;;;;;5025185;28;20018;-50
2021/10/13 14:00:28;;;;;;;2.25;1.77;;;11.10;99.90;;;;;;5024278;28;20025;-55
2021/10/13 14:02:53;;;;;;;6.47;2.20;;;11.00;99.90;;;;;;5018607;28;20083;-53
2021/10/13 14:05:19;;;;;;;4.25;2.05;;;11.00;99.90;;;;;;5005961;28;20033;-54
2021/10/13 14:07:45;;;;;;;3.95;2.25;;;10.90;99.90;;;;;;5006898;28;20397;-52
2021/10/13 14:10:11;;;;;;;6.82;1.80;;;10.80;99.90;;;;;;5007201;28;20049;-52
2021/10/13 14:12:37;;;;;;;4.90;1.83;;;10.70;99.90;;;;;;5018922;28;20655;-51
2021/10/13 14:15:04;;;;;;;3.55;1.55;;;10.60;99.90;;;;;;5023480;28;20025;-51
2021/10/13 14:17:30;;;;;;;4.45;1.95;;;10.50;99.90;;;;;;5024324;28;20033;-50
2021/10/13 14:19:56;;;;;;;6.55;1.80;;;10.40;99.90;;;;;;5024607;28;20108;-52
2021/10/13 14:22:21;;;;;;;4.10;1.58;;;10.40;99.90;;;;;;5019294;28;20104;-50
2021/10/13 14:24:47;;;;;;;3.50;1.30;;;10.40;99.90;;;;;;5010985;28;20452;-51
2021/10/13 14:27:12;;;;;;;2.88;1.48;;;10.40;99.90;;;;;;5015427;28;20041;-51
2021/10/13 14:29:38;;;;;;;5.03;1.52;;;10.40;99.90;;;;;;5024111;28;20112;-51
2021/10/13 14:32:05;;;;;;;3.47;1.20;;;10.40;99.90;;;;;;5023283;28;20087;-50
2021/10/13 14:34:30;;;;;;;3.42;1.35;;;10.40;99.90;;;;;;5016643;28;20504;-50
2021/10/13 14:36:56;;;;;;;2.58;1.00;;;10.40;99.90;;;;;;5025151;28;20070;-51
2021/10/13 14:39:22;;;;;;;1.08;0.95;;;10.40;99.90;;;;;;5018821;28;20063;-51
2021/10/13 14:41:47;;;;;;;5.90;1.38;;;10.40;99.90;;;;;;5010157;28;20078;-51
2021/10/13 14:44:13;;;;;;;3.90;1.30;;;10.40;99.90;;;;;;5039337;27;20040;-51
2021/10/13 14:46:40;;;;;;;2.88;1.50;;;10.50;99.90;;;;;;5024612;28;20646;-54
2021/10/13 14:49:06;;;;;;;3.03;1.80;;;10.50;99.90;;;;;;5024030;28;20102;-55
2021/10/13 14:51:32;;;;;;;4.07;1.25;;;10.50;99.90;;;;;;5024830;28;20083;-51
2021/10/13 14:53:59;;;;;;;2.05;1.00;;;10.60;99.90;;;;;;5024548;28;20686;-53
2021/10/13 14:56:25;;;;;;;4.57;1.52;;;10.60;99.90;;;;;;5024561;28;20030;-51
2021/10/13 14:58:51;;;;;;;2.00;1.35;;;10.60;99.90;;;;;;5024286;28;20051;-50
2021/10/13 15:01:17;;;;;;;3.33;1.27;;;10.60;99.90;;;;;;5023850;28;20117;-52
2021/10/13 15:03:42;;;;;;;3.58;1.13;;;10.50;99.90;;;;;;5024397;28;20025;-51
2021/10/13 15:06:08;;;;;;;3.80;1.80;;;10.50;99.90;;;;;;5010633;28;20575;-50
2021/10/13 15:08:35;;;;;;;4.53;1.10;;;10.50;99.90;;;;;;5010111;28;20539;-50
2021/10/13 15:11:01;;;;;;;5.47;0.93;;;10.40;99.90;;;;;;5023361;28;20504;-51
2021/10/13 15:13:28;;;;;;;3.97;0.85;;;10.40;99.90;;;;;;5018998;28;20029;-50
2021/10/13 15:15:53;;;;;;;4.68;1.02;;;10.40;99.90;;;;;;5023516;28;20033;-51
2021/10/13 15:18:19;;;;;;;2.72;1.38;;;10.30;99.90;;;;;;5023827;28;20035;-51
2021/10/13 15:20:44;;;;;;;2.30;0.90;;;10.30;99.90;;;;;;5023606;28;20057;-50
2021/10/13 15:23:11;;;;;;;3.90;1.05;;;10.30;99.90;;;;;;5022859;28;20090;-51
2021/10/13 15:25:37;;;;;;;1.42;1.00;;;10.30;99.90;;;;;;5023617;28;20517;-51
2021/10/13 15:28:03;;;;;;;2.83;1.00;;;10.30;99.90;;;;;;5023023;28;20030;-52
2021/10/13 15:30:29;;;;;;;5.22;1.23;;;10.20;99.90;;;;;;5025517;28;20061;-51
2021/10/13 15:32:57;;;;;;;2.67;0.80;;;10.20;99.90;;;;;;5026787;28;20528;-51
2021/10/13 15:35:24;;;;;;;1.85;1.42;;;10.20;99.90;;;;;;5025095;28;20029;-50
2021/10/13 15:37:50;;;;;;;4.32;1.00;;;10.10;99.90;;;;;;5026454;28;20113;-51
2021/10/13 15:40:16;;;;;;;2.85;0.93;;;10.10;99.90;;;;;;5027499;28;20690;-50
2021/10/13 15:42:42;;;;;;;3.17;0.93;;;10.10;99.90;;;;;;5027641;28;20044;-51
2021/10/13 15:45:10;;;;;;;2.75;0.82;;;10.00;99.90;;;;;;5026801;28;20064;-51
2021/10/13 15:47:36;;;;;;;2.90;1.02;;;10.00;99.90;;;;;;5027545;28;20033;-51
2021/10/13 15:50:02;;;;;;;3.78;1.15;;;10.00;99.90;;;;;;5026944;28;20034;-52
2021/10/13 15:52:28;;;;;;;2.55;1.65;;;10.00;99.90;;;;;;5026136;28;20113;-51
2021/10/13 15:54:53;;;;;;;2.08;0.90;;;10.00;99.90;;;;;;5026868;28;20189;-53
2021/10/13 15:57:19;;;;;;;2.35;1.35;;;10.00;99.90;;;;;;5027065;28;20644;-52
2021/10/13 15:59:45;;;;;;;3.75;1.30;;;9.90;99.90;;;;;;5026786;28;20123;-53
2021/10/13 16:02:10;;;;;;;2.55;1.25;;;9.90;99.90;;;;;;5026758;28;20090;-51
2021/10/13 16:04:36;;;;;;;3.88;1.67;;;9.90;99.90;;;;;;5024297;28;20519;-51
2021/10/13 16:07:02;;;;;;;1.33;1.20;;;9.90;99.90;;;;;;5026621;28;20045;-51
2021/10/13 16:09:28;;;;;;;2.13;1.45;;;9.90;99.90;;;;;;5026228;28;20045;-52
2021/10/13 16:11:53;;;;;;;2.50;1.50;;;9.80;99.90;;;;;;5026728;28;20030;-53
2021/10/13 16:14:21;;;;;;;2.88;1.90;;;9.80;99.90;;;;;;5026240;28;20544;-50
2021/10/13 16:16:46;;;;;;;2.83;1.65;;;9.70;99.90;;;;;;5026387;28;20026;-51
2021/10/13 16:19:12;;;;;;;2.95;1.58;;;9.70;99.90;;;;;;5026289;28;20608;-52
2021/10/13 16:21:37;;;;;;;1.73;1.10;;;9.70;99.90;;;;;;5012536;28;20030;-51
2021/10/13 16:24:05;;;;;;;2.38;1.80;;;9.70;99.90;;;;;;5026979;28;20093;-52
2021/10/13 16:26:36;;;;;;;1.88;1.63;;;9.70;99.90;;;;;;5026508;28;20034;-51
2021/10/13 16:29:02;;;;;;;4.13;2.40;;;9.70;99.90;;;;;;5025692;28;20078;-50
2021/10/13 16:31:28;;;;;;;5.07;2.97;;;9.60;99.90;;;;;;5025704;28;20069;-51
2021/10/13 16:33:53;;;;;;;4.68;2.92;;;9.60;99.90;;;;;;5024462;28;20091;-52
2021/10/13 16:36:20;;;;;;;5.75;3.42;;;9.60;99.90;;;;;;5024755;28;20065;-51
2021/10/13 16:38:45;;;;;;;5.95;4.65;;;9.60;99.90;;;;;;5026419;28;20025;-54
2021/10/13 16:41:12;;;;;;;9.23;8.32;;;9.60;99.90;;;;;;5025459;28;20036;-51
2021/10/13 16:43:37;;;;;;;10.13;9.15;;;9.50;99.90;;;;;;5026285;28;20537;-53
2021/10/13 16:46:03;;;;;;;9.43;8.35;;;9.50;99.90;;;;;;5025176;28;20033;-52
2021/10/13 16:48:29;;;;;;;8.32;7.32;;;9.50;99.90;;;;;;5026184;28;20033;-50
2021/10/13 16:50:54;;;;;;;7.22;6.15;;;9.50;99.90;;;;;;5026358;28;20040;-51
2021/10/13 16:53:24;;;;;;;5.97;5.38;;;9.40;99.90;;;;;;5025911;28;20043;-51
2021/10/13 16:55:49;;;;;;;6.20;5.15;;;9.40;99.90;;;;;;5026550;28;20117;-51
2021/10/13 16:58:16;;;;;;;6.97;3.90;;;9.40;99.90;;;;;;5025621;28;20113;-54
2021/10/13 17:00:41;;;;;;;4.85;4.30;;;9.40;99.90;;;;;;5026003;28;20029;-52
2021/10/13 17:03:08;;;;;;;6.60;5.43;;;9.40;99.90;;;;;;5026235;28;20036;-51
2021/10/13 17:05:34;;;;;;;12.05;10.80;;;9.30;99.90;;;;;;5025773;28;20116;-51
2021/10/13 17:08:00;;;;;;;9.93;8.68;;;9.30;99.90;;;;;;5025954;28;20109;-51
2021/10/13 17:10:25;;;;;;;6.53;5.95;;;9.40;99.90;;;;;;5025475;28;20041;-52
2021/10/13 17:12:51;;;;;;;7.53;5.10;;;9.30;99.90;;;;;;5025774;28;20117;-51
2021/10/13 17:15:17;;;;;;;5.03;4.38;;;9.30;99.90;;;;;;5026005;28;20520;-52
2021/10/13 17:17:42;;;;;;;4.10;3.70;;;9.30;99.90;;;;;;5025430;28;20036;-51
2021/10/13 17:20:08;;;;;;;3.58;2.97;;;9.20;99.90;;;;;;5025380;28;20041;-51
2021/10/13 17:22:35;;;;;;;4.70;2.53;;;9.20;99.90;;;;;;5026412;28;20473;-51
2021/10/13 17:25:03;;;;;;;2.47;2.28;;;9.20;99.90;;;;;;5025967;28;20037;-53
2021/10/13 17:27:29;;;;;;;4.50;2.78;;;9.20;99.90;;;;;;5026186;28;20059;-51
2021/10/13 17:29:55;;;;;;;3.78;2.30;;;9.20;99.90;;;;;;5013285;28;20611;-51
2021/10/13 17:32:20;;;;;;;3.05;2.20;;;9.20;99.90;;;;;;5025338;28;20041;-51
2021/10/13 17:34:48;;;;;;;4.00;1.90;;;9.20;99.90;;;;;;5024639;28;20045;-52
2021/10/13 17:37:15;;;;;;;4.57;2.30;;;9.20;99.90;;;;;;5021571;28;20055;-50
2021/10/13 17:39:44;;;;;;;3.35;2.30;;;9.20;99.90;;;;;;5025221;28;20014;-51
2021/10/13 17:42:10;;;;;;;3.47;2.38;;;9.10;99.90;;;;;;5025703;28;20512;-51
2021/10/13 17:44:36;;;;;;;3.88;2.60;;;9.10;99.90;;;;;;5025600;28;20032;-50
2021/10/13 17:47:04;;;;;;;4.95;2.20;;;9.10;99.90;;;;;;5024003;28;20036;-51
2021/10/13 17:49:30;;;;;;;2.95;2.30;;;9.10;99.90;;;;;;5024953;28;20486;-51
2021/10/13 17:51:56;;;;;;;3.15;2.03;;;9.10;99.90;;;;;;5024471;28;20128;-51
2021/10/13 17:54:21;;;;;;;2.92;2.45;;;9.10;99.90;;;;;;5024632;28;20068;-51
2021/10/13 17:56:47;;;;;;;3.63;2.70;;;9.10;99.90;;;;;;5025340;28;20033;-51
2021/10/13 17:59:13;;;;;;;7.25;2.58;;;9.10;99.90;;;;;;5024364;28;20405;-50
2021/10/13 18:01:41;;;;;;;4.03;2.30;;;9.10;99.90;;;;;;5025047;28;20037;-52
2021/10/13 18:04:08;;;;;;;4.53;2.10;;;9.00;99.90;;;;;;5025173;28;20636;-51
2021/10/13 18:06:33;;;;;;;3.85;2.33;;;9.00;99.90;;;;;;5074272;22;20051;-54
2021/10/13 18:08:59;;;;;;;6.80;1.85;;;9.10;99.90;;;;;;5066115;28;20020;-51
2021/10/13 18:11:24;;;;;;;4.45;2.38;;;9.10;99.90;;;;;;5067159;28;20067;-50
2021/10/13 18:13:50;;;;;;;5.40;2.42;;;9.10;99.90;;;;;;5067842;28;20491;-54
2021/10/13 18:16:15;;;;;;;7.47;2.30;;;9.10;99.90;;;;;;5068140;28;20107;-50
2021/10/13 18:18:41;;;;;;;4.57;2.53;;;9.10;99.90;;;;;;5067693;28;20028;-53
2021/10/13 18:21:07;;;;;;;4.45;2.28;;;9.00;99.90;;;;;;5067668;28;20099;-53
2021/10/13 18:23:32;;;;;;;4.25;2.65;;;9.00;99.90;;;;;;5067672;28;20479;-53
2021/10/13 18:25:59;;;;;;;3.92;2.40;;;9.10;99.90;;;;;;5049531;28;20078;-50
2021/10/13 18:28:26;;;;;;;3.72;2.50;;;9.00;99.90;;;;;;5068044;28;20108;-47
2021/10/13 18:30:51;;;;;;;3.60;2.15;;;9.00;99.90;;;;;;5067648;28;20069;-49
2021/10/13 18:33:17;;;;;;;2.38;1.88;;;9.10;99.90;;;;;;5067340;28;20028;-56
2021/10/13 18:35:42;;;;;;;2.90;2.03;;;9.10;99.90;;;;;;5066896;28;20158;-52
2021/10/13 18:38:08;;;;;;;3.38;2.10;;;9.10;99.90;;;;;;5067429;28;20197;-51
2021/10/13 18:40:34;;;;;;;5.75;2.47;;;9.10;99.90;;;;;;5048064;28;20502;-49
2021/10/13 18:42:59;;;;;;;2.17;1.95;;;9.10;99.90;;;;;;5066864;28;20032;-53
2021/10/13 18:45:25;;;;;;;3.85;2.97;;;9.10;99.90;;;;;;5065830;28;20021;-54
2021/10/13 18:47:51;;;;;;;25.50;12.40;;;9.10;99.90;;;;;;5066707;28;20044;-52
2021/10/13 18:50:18;;;;;;;37.53;17.35;;;9.10;99.90;;;;;;5066635;28;20060;-52
2021/10/13 18:52:46;;;;;;;35.60;17.67;;;9.10;99.90;;;;;;5067108;28;20028;-52
2021/10/13 18:55:11;;;;;;;117.13;46.28;;;9.10;99.90;;;;;;5067496;28;20056;-51
2021/10/13 18:57:37;;;;;;;143.20;66.18;;;9.10;99.90;;;;;;5067028;28;20129;-49
2021/10/13 19:00:04;;;;;;;68.00;60.80;;;9.10;99.90;;;;;;5067394;28;20020;-51
2021/10/13 19:02:30;;;;;;;37.42;33.67;;;9.10;99.90;;;;;;5067501;28;20034;-51
2021/10/13 19:04:56;;;;;;;18.70;16.77;;;9.10;99.90;;;;;;5070608;28;20028;-48
2021/10/13 19:07:21;;;;;;;6.53;5.80;;;9.10;99.90;;;;;;5071371;28;20035;-52
2021/10/13 19:09:47;;;;;;;4.15;3.75;;;9.10;99.90;;;;;;5053014;28;20021;-53
2021/10/13 19:12:13;;;;;;;4.60;3.08;;;9.10;99.90;;;;;;5071363;28;20028;-54
2021/10/13 19:14:39;;;;;;;3.95;2.58;;;9.10;99.90;;;;;;5071117;28;20028;-52
2021/10/13 19:17:05;;;;;;;5.47;2.50;;;9.10;99.90;;;;;;5071428;28;20032;-51
2021/10/13 19:19:32;;;;;;;4.47;2.10;;;9.10;99.90;;;;;;5070626;28;20033;-52
2021/10/13 19:21:58;;;;;;;4.15;2.20;;;9.20;99.90;;;;;;5070735;28;20031;-49
2021/10/13 19:24:23;;;;;;;4.80;2.58;;;9.10;99.90;;;;;;5070945;28;20450;-51
2021/10/13 19:26:50;;;;;;;5.25;3.33;;;9.10;99.90;;;;;;5070523;28;20094;-54
2021/10/13 19:29:17;;;;;;;4.07;2.70;;;9.10;99.90;;;;;;5071016;28;20107;-53
2021/10/13 19:31:44;;;;;;;6.63;2.50;;;9.20;99.90;;;;;;5070911;28;20024;-51
2021/10/13 19:34:09;;;;;;;6.70;3.20;;;9.20;99.90;;;;;;5070281;28;20483;-53
2021/10/13 19:36:35;;;;;;;3.13;2.80;;;9.20;99.90;;;;;;5070780;28;20035;-51
2021/10/13 19:39:00;;;;;;;5.95;3.00;;;9.20;99.90;;;;;;5070626;28;20020;-54
2021/10/13 19:41:26;;;;;;;9.65;3.67;;;9.20;99.90;;;;;;5070393;28;20114;-51
2021/10/13 19:43:51;;;;;;;6.20;3.55;;;9.20;99.90;;;;;;5071203;28;20459;-56
2021/10/13 19:46:18;;;;;;;5.13;3.25;;;9.20;99.90;;;;;;5069906;28;20392;-52
2021/10/13 19:48:44;;;;;;;4.75;3.42;;;9.20;99.90;;;;;;5070267;28;20060;-56
2021/10/13 19:51:10;;;;;;;5.93;3.47;;;9.20;99.90;;;;;;5070242;28;20043;-52
2021/10/13 19:53:38;;;;;;;7.80;3.65;;;9.20;99.90;;;;;;5070309;28;20020;-51
2021/10/13 19:56:04;;;;;;;5.10;3.70;;;9.20;99.90;;;;;;5058642;28;20036;-53
2021/10/13 19:58:30;;;;;;;7.53;4.00;;;9.20;99.90;;;;;;5068888;28;20047;-54
2021/10/13 20:00:55;;;;;;;5.22;3.72;;;9.20;99.90;;;;;;5069411;28;20281;-52
2021/10/13 20:03:21;;;;;;;7.13;2.95;;;9.20;99.90;;;;;;5070870;28;20042;-54
2021/10/13 20:05:46;;;;;;;5.05;3.35;;;9.20;99.90;;;;;;5070664;28;20041;-53
2021/10/13 20:08:12;;;;;;;9.15;3.90;;;9.20;99.90;;;;;;5052595;28;20044;-51
2021/10/13 20:10:38;;;;;;;9.30;4.07;;;9.20;99.90;;;;;;5069327;28;20039;-51
2021/10/13 20:13:03;;;;;;;5.13;3.42;;;9.20;99.90;;;;;;5070785;28;20033;-49
2021/10/13 20:15:29;;;;;;;6.78;3.85;;;9.20;99.90;;;;;;5069980;28;20067;-54
2021/10/13 20:17:54;;;;;;;6.25;3.85;;;9.20;99.90;;;;;;5069482;28;20052;-52
2021/10/13 20:20:20;;;;;;;10.43;4.15;;;9.20;99.90;;;;;;5069291;28;20059;-55
2021/10/13 20:22:47;;;;;;;6.25;4.05;;;9.20;99.90;;;;;;5069780;28;20074;-51
2021/10/13 20:25:13;;;;;;;5.88;3.90;;;9.30;99.90;;;;;;5069400;28;20020;-51
2021/10/13 20:27:38;;;;;;;5.50;3.55;;;9.30;99.90;;;;;;5069655;28;20039;-50
2021/10/13 20:30:06;;;;;;;5.13;3.92;;;9.20;99.90;;;;;;5051096;28;20064;-53
2021/10/13 20:32:32;;;;;;;8.52;4.18;;;9.20;99.90;;;;;;5069566;28;20396;-53
2021/10/13 20:34:58;;;;;;;6.65;3.53;;;9.20;99.90;;;;;;5065353;28;20025;-54
2021/10/13 20:37:24;;;;;;;7.32;3.95;;;9.20;99.90;;;;;;5069501;28;20035;-53
2021/10/13 20:39:49;;;;;;;7.53;3.80;;;9.20;99.90;;;;;;5068734;28;20040;-53
2021/10/13 20:42:18;;;;;;;5.93;3.17;;;9.20;99.90;;;;;;5048731;28;20044;-52
2021/10/13 20:44:44;;;;;;;8.25;3.55;;;9.20;99.90;;;;;;5048444;28;20039;-52
2021/10/13 20:47:10;;;;;;;5.68;3.65;;;9.20;99.90;;;;;;5067175;28;20038;-52
2021/10/13 20:49:36;;;;;;;7.75;4.97;;;9.20;99.90;;;;;;5067849;28;20115;-49
2021/10/13 20:52:02;;;;;;;8.95;4.88;;;9.20;99.90;;;;;;5068817;28;20047;-53
2021/10/13 20:54:30;;;;;;;8.18;3.97;;;9.30;99.90;;;;;;5068727;28;20364;-50
2021/10/13 20:56:56;;;;;;;6.05;3.40;;;9.30;99.90;;;;;;5068669;28;20040;-51
2021/10/13 20:59:21;;;;;;;8.52;3.03;;;9.30;99.90;;;;;;5069422;28;20020;-54
2021/10/13 21:01:47;;;;;;;4.10;3.03;;;9.20;99.90;;;;;;5069442;28;20085;-50
2021/10/13 21:04:12;;;;;;;12.68;3.80;;;9.20;99.90;;;;;;5069371;28;20030;-56
2021/10/13 21:06:38;;;;;;;3.88;3.35;;;9.30;99.90;;;;;;5068847;28;20036;-53
2021/10/13 21:09:04;;;;;;;8.65;2.85;;;9.30;99.90;;;;;;5068855;28;20508;-50
2021/10/13 21:11:30;;;;;;;6.15;3.03;;;9.30;99.90;;;;;;5068925;28;20319;-53
2021/10/13 21:13:56;;;;;;;7.13;2.97;;;9.30;99.90;;;;;;5068742;28;20134;-52
2021/10/13 21:16:21;;;;;;;6.40;3.00;;;9.30;99.90;;;;;;5069152;28;20032;-50
2021/10/13 21:18:47;;;;;;;5.00;3.05;;;9.30;99.90;;;;;;5050555;28;20036;-49
2021/10/13 21:21:13;;;;;;;8.15;4.45;;;9.30;99.90;;;;;;5063618;28;20033;-54
2021/10/13 21:23:39;;;;;;;8.13;3.47;;;9.30;99.90;;;;;;5062534;28;20078;-52
2021/10/13 21:26:05;;;;;;;5.05;3.75;;;9.30;99.90;;;;;;5067742;28;20033;-49
2021/10/13 21:28:31;;;;;;;6.85;3.67;;;9.30;99.90;;;;;;5068405;28;20484;-55
2021/10/13 21:30:56;;;;;;;6.93;3.97;;;9.30;99.90;;;;;;5067573;28;20102;-50
2021/10/13 21:33:22;;;;;;;5.47;3.92;;;9.30;99.90;;;;;;5068152;28;20403;-51
2021/10/13 21:35:47;;;;;;;10.73;4.32;;;9.30;99.90;;;;;;5068758;28;20556;-51
2021/10/13 21:38:15;;;;;;;5.35;3.72;;;9.30;99.90;;;;;;5067879;28;20109;-53
2021/10/13 21:40:41;;;;;;;9.95;4.22;;;9.30;99.90;;;;;;5067502;28;20024;-50
2021/10/13 21:43:07;;;;;;;7.78;4.18;;;9.30;99.90;;;;;;5053364;28;20498;-49
2021/10/13 21:45:32;;;;;;;7.78;4.25;;;9.30;99.90;;;;;;5067970;28;20060;-53
2021/10/13 21:47:58;;;;;;;5.80;3.88;;;9.30;99.90;;;;;;5067915;28;20039;-52
2021/10/13 21:50:26;;;;;;;8.18;4.25;;;9.30;99.90;;;;;;5067353;28;20100;-51
2021/10/13 21:52:52;;;;;;;5.55;4.15;;;9.30;99.90;;;;;;5067755;28;20568;-50
2021/10/13 21:55:17;;;;;;;7.45;4.05;;;9.30;99.90;;;;;;5067412;28;20024;-51
2021/10/13 21:57:43;;;;;;;5.43;3.50;;;9.30;99.90;;;;;;5067641;28;20031;-49
2021/10/13 22:00:14;;;;;;;6.38;3.42;;;9.30;99.90;;;;;;5067128;28;20024;-51
2021/10/13 22:02:41;;;;;;;6.18;3.92;;;9.30;99.90;;;;;;5067512;28;20032;-50
2021/10/13 22:05:07;;;;;;;6.53;3.75;;;9.30;99.90;;;;;;5067529;28;20029;-53
2021/10/13 22:07:33;;;;;;;6.82;4.47;;;9.30;99.90;;;;;;5067855;28;20380;-51
2021/10/13 22:09:59;;;;;;;7.50;3.53;;;9.30;99.90;;;;;;5067632;28;20099;-51
2021/10/13 22:12:24;;;;;;;5.05;3.58;;;9.30;99.90;;;;;;5067426;28;20082;-52
2021/10/13 22:14:50;;;;;;;5.88;3.30;;;9.30;99.90;;;;;;5067569;28;20543;-51
2021/10/13 22:17:16;;;;;;;6.05;3.88;;;9.30;99.90;;;;;;5067393;28;20036;-50
2021/10/13 22:19:42;;;;;;;6.60;3.63;;;9.30;99.90;;;;;;5067066;28;20028;-51
2021/10/13 22:22:09;;;;;;;5.45;3.70;;;9.30;99.90;;;;;;5067262;28;20028;-51
2021/10/13 22:24:35;;;;;;;6.05;3.75;;;9.30;99.90;;;;;;5067384;28;20124;-54
2021/10/13 22:27:00;;;;;;;6.95;4.28;;;9.30;99.90;;;;;;5065460;28;20103;-49
2021/10/13 22:29:26;;;;;;;4.60;4.10;;;9.30;99.90;;;;;;5066952;28;20040;-53
2021/10/13 22:31:52;;;;;;;3.60;3.05;;;9.30;99.90;;;;;;5067460;28;20043;-56
2021/10/13 22:34:17;;;;;;;5.95;3.65;;;9.30;99.90;;;;;;5067516;28;20102;-51
2021/10/13 22:36:43;;;;;;;6.53;4.13;;;9.30;99.90;;;;;;5065998;28;20427;-53
2021/10/13 22:39:09;;;;;;;4.63;3.60;;;9.20;99.90;;;;;;5066799;28;20029;-51
2021/10/13 22:41:34;;;;;;;3.83;3.40;;;9.30;99.90;;;;;;5067461;28;20105;-50
2021/10/13 22:44:00;;;;;;;4.35;3.38;;;9.30;99.90;;;;;;5068253;28;20044;-52
2021/10/13 22:46:25;;;;;;;4.10;3.03;;;9.20;99.90;;;;;;5067139;28;20028;-51
2021/10/13 22:48:51;;;;;;;3.45;3.15;;;9.30;99.90;;;;;;5067727;28;20025;-52
2021/10/13 22:51:16;;;;;;;6.50;3.10;;;9.30;99.90;;;;;;5049519;28;20110;-53
2021/10/13 22:53:44;;;;;;;6.60;3.70;;;9.30;99.90;;;;;;5067631;28;20027;-51
2021/10/13 22:56:10;;;;;;;4.18;3.13;;;9.30;99.90;;;;;;5067104;28;20024;-55
2021/10/13 22:58:35;;;;;;;4.65;3.50;;;9.30;99.90;;;;;;5067264;28;20024;-57
2021/10/13 23:01:01;;;;;;;3.45;3.15;;;9.30;99.90;;;;;;5067857;28;20506;-54
2021/10/13 23:03:27;;;;;;;4.93;3.55;;;9.30;99.90;;;;;;5067967;28;20068;-54
2021/10/13 23:05:52;;;;;;;5.28;4.20;;;9.30;99.90;;;;;;5067368;28;20094;-54
2021/10/13 23:08:18;;;;;;;4.70;3.30;;;9.30;99.90;;;;;;5067009;28;20107;-54
2021/10/13 23:10:43;;;;;;;4.38;3.80;;;9.30;99.90;;;;;;5067120;28;20094;-50
2021/10/13 23:13:09;;;;;;;5.18;3.28;;;9.30;99.90;;;;;;5067368;28;20029;-52
2021/10/13 23:15:34;;;;;;;3.97;3.38;;;9.30;99.90;;;;;;5067456;28;20579;-51
2021/10/13 23:18:04;;;;;;;4.90;3.58;;;9.30;99.90;;;;;;5067253;28;20027;-51
2021/10/13 23:20:32;;;;;;;6.05;4.03;;;9.30;99.90;;;;;;5066991;28;20472;-49
2021/10/13 23:22:58;;;;;;;4.53;3.92;;;9.30;99.90;;;;;;5067815;28;20210;-56
2021/10/13 23:25:23;;;;;;;4.55;2.95;;;9.30;99.90;;;;;;5066778;28;20112;-52
2021/10/13 23:27:49;;;;;;;6.40;4.55;;;9.30;99.90;;;;;;5066879;28;20028;-52
2021/10/13 23:30:15;;;;;;;6.25;4.47;;;9.30;99.90;;;;;;5048713;28;20039;-54
2021/10/13 23:32:40;;;;;;;6.40;5.10;;;9.30;99.90;;;;;;5067534;28;20547;-51
2021/10/13 23:35:07;;;;;;;6.72;5.15;;;9.30;99.90;;;;;;5067686;28;20512;-49
2021/10/13 23:37:32;;;;;;;5.90;5.20;;;9.40;99.90;;;;;;5066704;28;20031;-52
2021/10/13 23:39:58;;;;;;;5.18;4.68;;;9.40;99.90;;;;;;5066532;28;20024;-53
2021/10/13 23:42:23;;;;;;;5.40;4.90;;;9.40;99.90;;;;;;5066833;28;20032;-54